Watford, Canada
Current Conditions -  °F | °C
As of 5:00 PM on Saturday 25 Oct 2014 (Local Time) from CYZR Reporting Station
Clear Clear  
Wind Chill: 66°   Ceiling: Unl
Heat Index: 66°   Visibility: 9mi
Dew Point: 43°   Wind: 14mph
Humidity: 43%   Direction: 260°W
Pressure: 29.67"   Gusts: 28mph
Location:  42.95°N, 81.88°W
Report Text: CYZR 252100Z AUTO 26012G24KT 9SM CLR 19/06 A2967 RMK SLP049 DENSITY ALT 1400FT
Loading
Personal Weather Stations






























Interactive Weather Map
Tropical Storm Tracking
New forecast layout! Learn more

10-Day Weather Forecast

Advertisements
Track Severe Weather on mobile